createdAt,value
2023-05-14T00:01:32.908Z,10.07
2023-05-14T00:03:59.950Z,12.07
2023-05-14T00:06:27.111Z,10.55
2023-05-14T00:08:54.096Z,11.05
2023-05-14T00:11:21.631Z,8.15
2023-05-14T00:13:49.750Z,10.23
2023-05-14T00:16:16.954Z,9.30
2023-05-14T00:18:44.065Z,12.13
2023-05-14T00:21:11.314Z,8.13
2023-05-14T00:23:38.452Z,9.30
2023-05-14T00:26:05.523Z,8.50
2023-05-14T00:28:32.558Z,12.50
2023-05-14T00:30:59.714Z,13.18
2023-05-14T00:33:26.833Z,8.75
2023-05-14T00:35:53.869Z,8.80
2023-05-14T00:38:21.002Z,8.75
2023-05-14T00:40:51.812Z,7.65
2023-05-14T00:43:21.634Z,8.95
2023-05-14T00:45:54.670Z,11.48
2023-05-14T00:48:24.024Z,13.77
2023-05-14T00:50:51.762Z,10.57
2023-05-14T00:53:19.607Z,11.68
2023-05-14T00:55:48.750Z,8.60
2023-05-14T00:58:16.345Z,11.50
2023-05-14T01:00:43.490Z,9.85
2023-05-14T01:03:10.769Z,9.52
2023-05-14T01:06:10.530Z,9.75
2023-05-14T01:08:54.042Z,11.75
2023-05-14T01:11:53.023Z,13.90
2023-05-14T01:14:24.588Z,12.75
2023-05-14T01:16:58.170Z,9.50
2023-05-14T01:19:40.533Z,13.93
2023-05-14T01:22:07.996Z,12.70
2023-05-14T01:24:35.118Z,13.15
2023-05-14T01:27:14.377Z,10.88
2023-05-14T01:29:47.768Z,15.15
2023-05-14T01:32:17.816Z,11.80
2023-05-14T01:34:48.975Z,11.05
2023-05-14T01:37:16.443Z,14.30
2023-05-14T01:39:44.243Z,12.07
2023-05-14T01:42:11.767Z,12.50
2023-05-14T01:44:39.327Z,9.98
2023-05-14T01:47:06.467Z,12.80
2023-05-14T01:49:33.523Z,11.18
2023-05-14T01:52:00.552Z,10.70
2023-05-14T01:54:27.553Z,14.20
2023-05-14T01:56:54.628Z,10.52
2023-05-14T01:59:21.609Z,10.20
2023-05-14T02:01:48.709Z,9.90
2023-05-14T02:04:15.997Z,10.00
2023-05-14T02:06:43.369Z,10.63
2023-05-14T02:09:10.470Z,14.05
2023-05-14T02:11:37.685Z,11.90
2023-05-14T02:14:04.838Z,11.57
2023-05-14T02:16:31.919Z,13.75
2023-05-14T02:18:59.059Z,13.35
2023-05-14T02:21:26.092Z,10.68
2023-05-14T02:23:53.128Z,12.18
2023-05-14T02:26:20.177Z,12.73
2023-05-14T02:28:47.255Z,15.32
2023-05-14T02:31:14.528Z,10.20
2023-05-14T02:33:41.705Z,15.50
2023-05-14T02:36:08.987Z,11.55
2023-05-14T02:38:36.017Z,11.15
2023-05-14T02:41:03.266Z,13.45
2023-05-14T02:43:30.349Z,11.68
2023-05-14T02:45:57.450Z,14.40
2023-05-14T02:48:24.508Z,14.93
2023-05-14T02:50:52.384Z,14.93
2023-05-14T02:53:19.519Z,16.42
2023-05-14T02:55:46.609Z,18.60
2023-05-14T02:58:13.764Z,18.45
2023-05-14T03:00:40.904Z,12.00
2023-05-14T03:03:08.377Z,14.65
2023-05-14T03:05:35.919Z,14.73
2023-05-14T03:08:03.039Z,14.82
2023-05-14T03:10:30.119Z,13.00
2023-05-14T03:12:57.177Z,13.88
2023-05-14T03:15:24.215Z,12.68
2023-05-14T03:17:51.375Z,14.00
2023-05-14T03:20:18.509Z,17.27
2023-05-14T03:22:45.622Z,13.50
2023-05-14T03:25:12.774Z,15.80
2023-05-14T03:27:39.777Z,15.10
2023-05-14T03:30:07.792Z,17.73
2023-05-14T03:32:34.903Z,18.90
2023-05-14T03:35:01.949Z,17.35
2023-05-14T03:37:29.004Z,18.02
2023-05-14T03:39:56.180Z,16.38
2023-05-14T03:42:23.220Z,18.55
2023-05-14T03:44:50.376Z,16.42
2023-05-14T03:47:20.338Z,19.60
2023-05-14T03:49:47.357Z,15.88
2023-05-14T03:52:14.466Z,17.30
2023-05-14T03:54:41.497Z,17.23
2023-05-14T03:57:08.652Z,19.00
2023-05-14T03:59:35.753Z,19.05
2023-05-14T04:02:02.907Z,24.10
2023-05-14T04:04:30.166Z,17.52
2023-05-14T04:06:57.233Z,19.92
2023-05-14T04:09:24.246Z,19.58
2023-05-14T04:11:51.400Z,16.35
2023-05-14T04:14:18.431Z,23.80
2023-05-14T04:16:45.455Z,20.50
2023-05-14T04:19:12.701Z,19.13
2023-05-14T04:21:39.912Z,21.08
2023-05-14T04:24:07.650Z,19.77
2023-05-14T04:26:35.347Z,24.52
2023-05-14T04:29:03.493Z,18.67
2023-05-14T04:31:31.827Z,18.80
2023-05-14T04:33:58.902Z,20.35
2023-05-14T04:36:25.969Z,21.42
2023-05-14T04:38:52.993Z,18.08
2023-05-14T04:41:20.024Z,19.15
2023-05-14T04:43:50.340Z,20.65
2023-05-14T04:46:17.477Z,17.90
2023-05-14T04:48:44.532Z,17.90
2023-05-14T04:51:11.542Z,23.33
2023-05-14T04:53:38.579Z,20.30
2023-05-14T04:56:06.586Z,19.45
2023-05-14T04:58:35.095Z,22.67
2023-05-14T05:01:05.831Z,20.85
2023-05-14T05:03:32.981Z,20.92
2023-05-14T05:06:00.179Z,20.10
2023-05-14T05:08:27.178Z,20.33
2023-05-14T05:10:54.197Z,24.35
2023-05-14T05:13:21.261Z,21.23
2023-05-14T05:15:48.381Z,21.23
2023-05-14T05:18:15.529Z,20.80
2023-05-14T05:20:42.579Z,20.95
2023-05-14T05:23:09.601Z,20.35
2023-05-14T05:25:36.913Z,22.52
2023-05-14T05:28:04.111Z,21.67
2023-05-14T05:30:31.428Z,19.20
2023-05-14T05:32:58.684Z,19.67
2023-05-14T05:35:25.792Z,17.95
2023-05-14T05:37:52.849Z,19.08
2023-05-14T05:40:19.984Z,18.27
2023-05-14T05:42:47.113Z,21.20
2023-05-14T05:45:14.334Z,19.77
2023-05-14T05:47:41.566Z,20.58
2023-05-14T05:50:09.807Z,23.10
2023-05-14T05:52:37.116Z,29.58
2023-05-14T05:55:04.642Z,20.60
2023-05-14T05:57:31.835Z,19.80
2023-05-14T05:59:58.980Z,18.13
2023-05-14T06:02:26.279Z,18.42
2023-05-14T06:04:53.509Z,18.65
2023-05-14T06:07:20.554Z,19.73
2023-05-14T06:09:47.598Z,19.80
2023-05-14T06:12:14.587Z,20.20
2023-05-14T06:14:41.593Z,18.67
2023-05-14T06:17:08.805Z,20.05
2023-05-14T06:19:35.952Z,19.92
2023-05-14T06:22:03.166Z,18.05
2023-05-14T06:24:30.370Z,17.13
2023-05-14T06:26:57.570Z,18.25
2023-05-14T06:29:25.508Z,19.27
2023-05-14T06:31:52.729Z,19.88
2023-05-14T06:34:19.908Z,16.63
2023-05-14T06:36:47.206Z,16.05
2023-05-14T06:39:14.227Z,18.98
2023-05-14T06:41:41.402Z,16.08
2023-05-14T06:44:08.497Z,19.23
2023-05-14T06:46:35.655Z,15.75
2023-05-14T06:49:02.888Z,17.02
2023-05-14T06:51:30.017Z,16.67
2023-05-14T06:53:57.024Z,14.52
2023-05-14T06:56:24.210Z,19.65
2023-05-14T06:58:51.293Z,16.17
2023-05-14T07:01:18.352Z,13.95
2023-05-14T07:03:45.688Z,14.77
2023-05-14T07:06:13.697Z,15.30
2023-05-14T07:08:40.958Z,13.30
2023-05-14T07:11:08.084Z,15.77
2023-05-14T07:13:35.133Z,14.85
2023-05-14T07:16:02.125Z,16.52
2023-05-14T07:18:29.185Z,13.95
2023-05-14T07:20:56.224Z,14.02
2023-05-14T07:23:23.267Z,16.00
2023-05-14T07:25:50.315Z,18.63
2023-05-14T07:28:17.510Z,15.25
2023-05-14T07:30:44.583Z,13.15
2023-05-14T07:33:11.612Z,16.65
2023-05-14T07:35:38.763Z,13.70
2023-05-14T07:38:06.304Z,14.40
2023-05-14T07:40:33.504Z,15.27
2023-05-14T07:43:02.636Z,17.05
2023-05-14T07:45:29.777Z,17.52
2023-05-14T07:47:56.937Z,14.95
2023-05-14T07:50:24.550Z,14.13
2023-05-14T07:52:51.922Z,16.75
2023-05-14T07:55:19.127Z,14.45
2023-05-14T07:57:46.228Z,14.07
2023-05-14T08:00:14.158Z,15.30
2023-05-14T08:02:42.492Z,15.43
2023-05-14T08:05:10.617Z,15.45
2023-05-14T08:07:37.674Z,14.73
2023-05-14T08:10:05.450Z,15.73
2023-05-14T08:12:32.675Z,13.57
2023-05-14T08:14:59.746Z,19.45
2023-05-14T08:17:26.824Z,14.00
2023-05-14T08:19:54.239Z,15.20
2023-05-14T08:22:21.824Z,13.20
2023-05-14T08:24:48.908Z,14.45
2023-05-14T08:27:16.675Z,11.07
2023-05-14T08:29:43.771Z,12.57
2023-05-14T08:32:22.185Z,12.82
2023-05-14T08:34:51.888Z,12.65
2023-05-14T08:37:19.198Z,13.52
2023-05-14T08:39:46.208Z,11.98
2023-05-14T08:42:15.591Z,12.02
2023-05-14T08:44:53.404Z,12.82
2023-05-14T08:47:23.919Z,13.25
2023-05-14T08:50:05.473Z,16.23
2023-05-14T08:52:33.541Z,16.30
2023-05-14T08:55:04.471Z,12.57
2023-05-14T08:57:33.889Z,14.43
2023-05-14T09:00:02.548Z,12.32
2023-05-14T09:02:31.792Z,12.85
2023-05-14T09:05:03.978Z,14.57
2023-05-14T09:07:31.280Z,12.05
2023-05-14T09:09:59.300Z,13.65
2023-05-14T09:12:26.468Z,12.48
2023-05-14T09:14:53.558Z,11.13
2023-05-14T09:17:21.013Z,11.30
2023-05-14T09:19:53.118Z,10.10
2023-05-14T09:22:20.854Z,12.10
2023-05-14T09:25:07.002Z,10.55
2023-05-14T09:27:34.780Z,11.05
2023-05-14T09:30:13.391Z,12.57
2023-05-14T09:32:45.905Z,8.93
2023-05-14T09:35:29.207Z,10.80
2023-05-14T09:37:56.690Z,10.35
2023-05-14T09:40:25.123Z,7.07
2023-05-14T09:42:52.520Z,8.52
2023-05-14T09:45:19.760Z,9.30
2023-05-14T09:47:47.071Z,6.88
2023-05-14T09:50:14.422Z,10.68
2023-05-14T09:52:42.598Z,8.05
2023-05-14T09:55:10.159Z,8.77
2023-05-14T09:57:37.304Z,9.98
2023-05-14T10:00:05.178Z,7.18
2023-05-14T10:02:41.578Z,9.65
2023-05-14T10:05:09.784Z,7.53
2023-05-14T10:07:46.666Z,11.35
2023-05-14T10:10:19.249Z,9.05
2023-05-14T10:13:18.227Z,8.88
2023-05-14T10:16:28.291Z,8.55
2023-05-14T10:19:01.347Z,7.70
2023-05-14T10:21:33.465Z,9.38
2023-05-14T10:24:00.796Z,9.88
2023-05-14T10:26:28.661Z,8.40
2023-05-14T10:28:56.528Z,9.43
2023-05-14T10:31:45.309Z,12.23
2023-05-14T10:34:32.653Z,14.00
2023-05-14T10:37:17.305Z,5.78
2023-05-14T10:40:02.243Z,7.60
2023-05-14T10:42:39.780Z,7.30
2023-05-14T10:45:13.926Z,7.30
2023-05-14T10:47:44.361Z,8.68
2023-05-14T10:50:14.858Z,9.57
2023-05-14T10:52:45.917Z,8.95
2023-05-14T10:55:16.031Z,6.28
2023-05-14T10:57:46.304Z,5.97
2023-05-14T11:00:14.838Z,6.50
2023-05-14T11:02:44.516Z,9.02
2023-05-14T11:05:17.726Z,4.78
2023-05-14T11:07:50.344Z,7.15
2023-05-14T11:10:22.502Z,8.23
2023-05-14T11:12:51.249Z,5.30
2023-05-14T11:15:21.805Z,4.95
2023-05-14T11:17:51.616Z,5.05
2023-05-14T11:20:20.285Z,7.15
2023-05-14T11:22:50.287Z,8.88
2023-05-14T11:25:19.869Z,4.43
2023-05-14T11:27:48.055Z,6.32
2023-05-14T11:30:22.481Z,5.57
2023-05-14T11:32:54.334Z,6.53
2023-05-14T11:35:21.380Z,11.80
2023-05-14T11:37:52.540Z,5.93
2023-05-14T11:40:20.088Z,6.20
2023-05-14T11:42:47.150Z,6.30
2023-05-14T11:45:26.670Z,5.60
2023-05-14T11:47:54.898Z,10.18
2023-05-14T11:50:23.415Z,7.78
2023-05-14T11:52:51.085Z,6.97
2023-05-14T11:55:18.356Z,5.50
2023-05-14T11:57:45.774Z,5.68
2023-05-14T12:00:14.613Z,6.65
2023-05-14T12:02:41.957Z,5.15
2023-05-14T12:05:12.908Z,10.27
2023-05-14T12:07:40.412Z,10.48
2023-05-14T12:10:08.402Z,5.22
2023-05-14T12:12:39.373Z,4.47
2023-05-14T12:15:14.108Z,4.50
2023-05-14T12:17:41.730Z,5.10
2023-05-14T12:20:11.095Z,6.22
2023-05-14T12:22:38.935Z,7.13
2023-05-14T12:25:16.005Z,4.00
2023-05-14T12:27:45.408Z,7.53
2023-05-14T12:32:44.232Z,6.22
2023-05-14T12:35:11.337Z,5.13
2023-05-14T12:37:39.914Z,4.15
2023-05-14T12:40:10.583Z,3.42
2023-05-14T12:42:37.816Z,4.63
2023-05-14T12:45:08.015Z,7.03
2023-05-14T12:47:36.318Z,2.97
2023-05-14T12:50:04.650Z,6.43
2023-05-14T12:55:01.913Z,3.90
2023-05-14T12:57:30.269Z,3.97
2023-05-14T12:59:57.870Z,3.97
2023-05-14T13:02:24.821Z,3.33
2023-05-14T13:04:51.865Z,4.25
2023-05-14T13:07:19.105Z,4.43
2023-05-14T13:09:46.196Z,3.20
2023-05-14T13:12:13.210Z,5.07
2023-05-14T13:14:40.228Z,4.13
2023-05-14T13:17:08.881Z,5.55
2023-05-14T13:19:35.977Z,3.50
2023-05-14T13:22:03.076Z,3.25
2023-05-14T13:24:30.111Z,4.95
2023-05-14T13:26:57.204Z,4.70
2023-05-14T13:29:24.685Z,2.95
2023-05-14T13:31:52.001Z,5.55
2023-05-14T13:34:19.300Z,3.83
2023-05-14T13:36:47.230Z,5.80
2023-05-14T13:39:14.596Z,3.90
2023-05-14T13:41:42.041Z,2.80
2023-05-14T13:44:09.202Z,5.00
2023-05-14T13:46:36.218Z,5.50
2023-05-14T13:49:03.400Z,4.93
2023-05-14T13:51:31.420Z,2.88
2023-05-14T13:53:58.542Z,2.40
2023-05-14T13:56:26.052Z,3.08
2023-05-14T13:58:53.128Z,3.05
2023-05-14T14:01:20.176Z,2.55
2023-05-14T14:03:47.229Z,3.17
2023-05-14T14:06:14.238Z,3.53
2023-05-14T14:08:41.245Z,4.07
2023-05-14T14:11:08.199Z,2.45
2023-05-14T14:13:35.190Z,2.90
2023-05-14T14:16:03.612Z,6.95
2023-05-14T14:18:30.787Z,2.53
2023-05-14T14:20:58.328Z,4.35
2023-05-14T14:23:25.484Z,3.50
2023-05-14T14:25:52.690Z,3.75
2023-05-14T14:28:19.704Z,5.22
2023-05-14T14:30:46.712Z,3.50
2023-05-14T14:33:13.761Z,3.08
2023-05-14T14:35:40.801Z,4.68
2023-05-14T14:38:07.801Z,6.53
2023-05-14T14:40:35.337Z,4.97
2023-05-14T14:43:02.520Z,4.15
2023-05-14T14:45:29.662Z,7.07
2023-05-14T14:48:31.407Z,4.53
2023-05-14T14:50:58.998Z,3.13
2023-05-14T14:53:26.074Z,3.53
2023-05-14T14:55:53.459Z,4.07
2023-05-14T14:58:21.810Z,3.80
2023-05-14T15:00:52.375Z,4.82
2023-05-14T15:03:20.098Z,3.58
2023-05-14T15:05:47.762Z,4.18
2023-05-14T15:08:15.759Z,4.60
2023-05-14T15:10:42.878Z,3.70
2023-05-14T15:13:10.419Z,7.57
2023-05-14T15:15:37.589Z,7.47
2023-05-14T15:18:05.288Z,8.13
2023-05-14T15:20:32.438Z,4.80
2023-05-14T15:22:59.538Z,4.82
2023-05-14T15:25:27.307Z,3.90
2023-05-14T15:27:54.476Z,6.07
2023-05-14T15:30:21.530Z,4.15
2023-05-14T15:32:48.731Z,5.13
2023-05-14T15:35:15.891Z,5.38
2023-05-14T15:37:47.401Z,5.85
2023-05-14T15:40:14.811Z,3.47
2023-05-14T15:42:43.673Z,7.18
2023-05-14T15:45:13.357Z,3.83
2023-05-14T15:47:41.550Z,5.40
2023-05-14T15:50:09.402Z,5.78
2023-05-14T15:52:36.881Z,6.00
2023-05-14T15:55:06.412Z,4.70
2023-05-14T15:57:34.359Z,4.60
2023-05-14T16:00:01.599Z,5.03
2023-05-14T16:02:30.531Z,7.82
2023-05-14T16:04:57.701Z,6.28
2023-05-14T16:07:24.737Z,4.25
2023-05-14T16:09:51.811Z,5.82
2023-05-14T16:12:18.895Z,4.07
2023-05-14T16:14:46.445Z,3.53
2023-05-14T16:17:13.705Z,4.05
2023-05-14T16:19:40.747Z,4.82
2023-05-14T16:22:07.877Z,4.90
2023-05-14T16:24:34.937Z,3.63
2023-05-14T16:27:02.147Z,4.13
2023-05-14T16:29:29.193Z,3.53
2023-05-14T16:31:56.330Z,5.45
2023-05-14T16:34:23.450Z,3.10
2023-05-14T16:36:50.683Z,3.33
2023-05-14T16:39:18.108Z,3.42
2023-05-14T16:41:45.187Z,9.85
2023-05-14T16:44:12.204Z,5.55
2023-05-14T16:46:39.492Z,8.88
2023-05-14T16:49:06.802Z,5.35
2023-05-14T16:51:33.825Z,8.40
2023-05-14T16:54:00.965Z,11.82
2023-05-14T16:56:29.335Z,5.38
2023-05-14T16:58:56.315Z,8.60
2023-05-14T17:01:24.581Z,6.75
2023-05-14T17:03:51.572Z,4.55
2023-05-14T17:06:18.800Z,4.97
2023-05-14T17:08:45.898Z,3.25
2023-05-14T17:11:12.906Z,8.25
2023-05-14T17:13:39.912Z,3.65
2023-05-14T17:16:07.071Z,5.43
2023-05-14T17:18:34.119Z,7.05
2023-05-14T17:21:01.184Z,6.35
2023-05-14T17:23:28.181Z,7.00
2023-05-14T17:25:56.744Z,6.50
2023-05-14T17:28:24.676Z,5.53
2023-05-14T17:30:52.037Z,3.65
2023-05-14T17:33:19.181Z,5.72
2023-05-14T17:35:46.620Z,6.82
2023-05-14T17:38:13.756Z,9.48
2023-05-14T17:40:40.980Z,7.85
2023-05-14T17:43:08.626Z,11.13
2023-05-14T17:45:46.174Z,8.35
2023-05-14T17:48:19.972Z,11.38
2023-05-14T17:50:47.099Z,9.88
2023-05-14T17:53:14.464Z,12.38
2023-05-14T17:55:43.808Z,12.15
2023-05-14T17:58:16.249Z,11.30
2023-05-14T18:00:43.899Z,12.98
2023-05-14T18:03:11.575Z,13.80
2023-05-14T18:05:39.021Z,7.55
2023-05-14T18:08:06.006Z,8.93
2023-05-14T18:10:33.007Z,9.25
2023-05-14T18:13:00.001Z,8.82
2023-05-14T18:15:27.456Z,11.70
2023-05-14T18:17:54.755Z,10.65
2023-05-14T18:20:22.238Z,12.77
2023-05-14T18:22:52.402Z,8.07
2023-05-14T18:25:19.514Z,12.73
2023-05-14T18:27:47.030Z,13.32
2023-05-14T18:30:16.148Z,12.95
2023-05-14T18:32:44.961Z,12.13
2023-05-14T18:35:13.280Z,13.43
2023-05-14T18:37:41.052Z,9.40
2023-05-14T18:40:09.223Z,14.93
2023-05-14T18:42:36.287Z,9.73
2023-05-14T18:45:04.603Z,14.88
2023-05-14T18:47:32.898Z,12.80
2023-05-14T18:50:02.198Z,10.95
2023-05-14T18:52:32.387Z,10.05
2023-05-14T18:54:59.338Z,11.75
2023-05-14T18:57:29.306Z,15.48
2023-05-14T18:59:56.422Z,14.55
2023-05-14T19:02:23.646Z,14.30
2023-05-14T19:04:52.278Z,12.15
2023-05-14T19:07:23.471Z,10.48
2023-05-14T19:09:50.615Z,14.23
2023-05-14T19:12:17.890Z,15.05
2023-05-14T19:14:44.921Z,15.15
2023-05-14T19:17:12.070Z,13.52
2023-05-14T19:19:39.546Z,16.17
2023-05-14T19:22:07.023Z,13.57
2023-05-14T19:24:34.223Z,15.57
2023-05-14T19:27:01.355Z,13.95
2023-05-14T19:29:28.521Z,16.25
2023-05-14T19:31:55.584Z,16.60
2023-05-14T19:34:22.712Z,12.93
2023-05-14T19:36:50.468Z,16.98
2023-05-14T19:39:17.460Z,12.85
2023-05-14T19:41:44.603Z,13.55
2023-05-14T19:44:11.780Z,16.95
2023-05-14T19:46:39.462Z,20.08
2023-05-14T19:49:06.558Z,16.45
2023-05-14T19:51:33.587Z,13.82
2023-05-14T19:54:01.242Z,17.05
2023-05-14T19:56:28.621Z,13.55
2023-05-14T19:58:55.772Z,17.83
2023-05-14T20:01:23.020Z,14.25
2023-05-14T20:03:50.168Z,17.17
2023-05-14T20:06:17.554Z,16.92
2023-05-14T20:08:47.913Z,14.27
2023-05-14T20:11:15.753Z,18.70
2023-05-14T20:13:42.883Z,16.17
2023-05-14T20:16:10.128Z,15.95
2023-05-14T20:18:37.234Z,14.80
2023-05-14T20:21:04.839Z,22.40
2023-05-14T20:23:32.386Z,16.42
2023-05-14T20:26:01.820Z,16.27
2023-05-14T20:28:29.046Z,18.05
2023-05-14T20:30:58.929Z,15.95
2023-05-14T20:33:27.689Z,21.92
2023-05-14T20:35:54.802Z,22.35
2023-05-14T20:38:22.237Z,19.52
2023-05-14T20:40:49.433Z,16.40
2023-05-14T20:43:16.544Z,15.40
2023-05-14T20:45:43.567Z,16.50
2023-05-14T20:48:12.170Z,19.13
2023-05-14T20:50:39.227Z,15.88
2023-05-14T20:53:06.408Z,18.25
2023-05-14T20:55:33.766Z,16.95
2023-05-14T20:58:00.812Z,21.13
2023-05-14T21:00:27.965Z,19.92
2023-05-14T21:02:58.061Z,17.08
2023-05-14T21:05:25.847Z,14.45
2023-05-14T21:07:53.036Z,18.92
2023-05-14T21:10:20.140Z,24.63
2023-05-14T21:12:47.237Z,17.75
2023-05-14T21:15:14.245Z,19.77
2023-05-14T21:17:41.448Z,22.73
2023-05-14T21:20:09.373Z,19.92
2023-05-14T21:22:36.447Z,17.85
2023-05-14T21:25:03.904Z,17.65
2023-05-14T21:27:31.022Z,20.08
2023-05-14T21:29:58.025Z,17.92
2023-05-14T21:32:25.641Z,20.40
2023-05-14T21:34:52.717Z,16.52
2023-05-14T21:37:22.156Z,19.42
2023-05-14T21:39:49.168Z,18.33
2023-05-14T21:42:16.430Z,17.90
2023-05-14T21:44:43.492Z,19.67
2023-05-14T21:47:11.481Z,21.52
2023-05-14T21:49:38.491Z,18.85
2023-05-14T21:52:05.791Z,20.77
2023-05-14T21:54:32.782Z,19.63
2023-05-14T21:56:59.904Z,18.10
2023-05-14T21:59:26.908Z,20.95
2023-05-14T22:04:24.045Z,21.67
2023-05-14T22:06:51.907Z,19.50
2023-05-14T22:09:18.909Z,20.25
2023-05-14T22:11:45.946Z,21.73
2023-05-14T22:14:12.996Z,19.13
2023-05-14T22:16:40.267Z,19.25
2023-05-14T22:19:07.350Z,22.02
2023-05-14T22:21:34.390Z,20.00
2023-05-14T22:24:01.357Z,18.52
2023-05-14T22:26:28.444Z,19.58
2023-05-14T22:28:57.580Z,26.73
2023-05-14T22:31:24.877Z,22.45
2023-05-14T22:33:52.203Z,26.38
2023-05-14T22:36:19.382Z,18.95
2023-05-14T22:38:46.419Z,21.13
2023-05-14T22:41:13.592Z,23.38
2023-05-14T22:43:40.693Z,20.45
2023-05-14T22:46:07.872Z,20.50
2023-05-14T22:48:34.904Z,21.48
2023-05-14T22:51:01.877Z,20.58
2023-05-14T22:53:28.879Z,22.95
2023-05-14T22:55:55.957Z,21.92
2023-05-14T22:58:22.979Z,23.63
2023-05-14T23:00:50.026Z,22.13
2023-05-14T23:03:17.079Z,21.75
2023-05-14T23:05:44.128Z,21.48
2023-05-14T23:08:11.423Z,24.30
2023-05-14T23:10:38.415Z,22.48
2023-05-14T23:13:05.517Z,23.42
2023-05-14T23:15:33.610Z,20.60
2023-05-14T23:18:00.829Z,25.05
2023-05-14T23:20:28.017Z,20.30
2023-05-14T23:22:54.988Z,21.17
2023-05-14T23:25:22.149Z,26.20
2023-05-14T23:27:50.124Z,25.77
2023-05-14T23:30:17.239Z,23.05
2023-05-14T23:32:44.267Z,24.98
2023-05-14T23:35:11.339Z,25.08
2023-05-14T23:37:42.599Z,27.98
2023-05-14T23:40:10.235Z,22.85
2023-05-14T23:42:37.227Z,22.08
2023-05-14T23:45:05.498Z,25.08
2023-05-14T23:47:32.775Z,24.98
2023-05-14T23:49:59.848Z,22.13
2023-05-14T23:52:26.951Z,30.23
2023-05-14T23:54:54.175Z,30.02
2023-05-14T23:57:21.516Z,32.30
2023-05-14T23:59:48.663Z,33.22
